Time;durP1;ratioP1;P1;durP2;ratioP2;P2;SDS_P1;SDS_P2;PMS_P1;PMS_P2;Temp;Humidity;BMP_temperature;BMP_pressure;BME280_temperature;BME280_humidity;BME280_pressure;Samples;Min_cycle;Max_cycle;Signal;HPM_P1;HPM_P2
2023/09/24 00:04:38;;;;;;;1.75;1.38;;;13.90;1.00;;;;;;10483894;28;20239;-82
2023/09/24 00:10:00;;;;;;;1.83;1.65;;;13.90;1.00;;;;;;10438412;28;20230;-80
2023/09/24 00:15:22;;;;;;;4.40;4.00;;;13.80;1.00;;;;;;10455672;28;20242;-81
2023/09/24 00:20:43;;;;;;;5.13;3.65;;;13.70;30.20;;;;;;10442395;28;20238;-82
2023/09/24 00:26:05;;;;;;;3.40;2.90;;;13.70;2.90;;;;;;10439108;28;20372;-81
2023/09/24 00:31:27;;;;;;;3.50;2.95;;;13.50;99.90;;;;;;10465101;28;20205;-81
2023/09/24 00:36:50;;;;;;;3.13;2.40;;;13.50;1.00;;;;;;10482976;28;20232;-78
2023/09/24 00:42:13;;;;;;;2.33;1.88;;;13.60;1.00;;;;;;10477020;28;20203;-80
2023/09/24 00:47:34;;;;;;;2.95;2.20;;;13.50;1.00;;;;;;10467143;28;20205;-82
2023/09/24 00:52:56;;;;;;;3.85;2.63;;;13.50;99.90;;;;;;10481483;28;20217;-79
2023/09/24 00:58:18;;;;;;;2.55;2.30;;;13.50;99.90;;;;;;10462416;28;20210;-81
2023/09/24 01:03:40;;;;;;;3.55;2.60;;;13.40;99.90;;;;;;10466604;28;20195;-82
2023/09/24 01:09:05;;;;;;;5.10;3.45;;;12.40;1.00;;;;;;10442356;28;20215;-82
2023/09/24 01:14:27;;;;;;;4.47;3.70;;;13.20;91.00;;;;;;10461199;28;20241;-77
2023/09/24 01:19:48;;;;;;;5.22;3.42;;;12.90;1.00;;;;;;10439231;28;20226;-81
2023/09/24 01:25:35;;;;;;;3.85;2.95;;;12.90;21.20;;;;;;10451920;28;20229;-81
2023/09/24 01:30:58;;;;;;;3.58;2.25;;;12.90;1.00;;;;;;10480617;28;20255;-82
2023/09/24 01:36:20;;;;;;;2.88;2.10;;;13.00;99.90;;;;;;10480359;28;20232;-82
2023/09/24 01:41:42;;;;;;;2.38;1.75;;;13.00;1.00;;;;;;10420322;28;20208;-81
2023/09/24 01:47:04;;;;;;;2.83;1.85;;;13.10;99.90;;;;;;10438986;28;20200;-81
2023/09/24 01:52:25;;;;;;;3.00;1.70;;;13.10;1.00;;;;;;10429058;28;20209;-78
2023/09/24 01:57:48;;;;;;;2.20;1.92;;;13.20;99.90;;;;;;10460458;28;20224;-77
2023/09/24 02:03:11;;;;;;;2.78;1.90;;;13.20;99.90;;;;;;10459695;28;20205;-80
2023/09/24 02:08:32;;;;;;;3.30;2.05;;;13.10;1.00;;;;;;10458748;28;20238;-82
2023/09/24 02:13:54;;;;;;;3.03;1.95;;;13.10;12.70;;;;;;10406384;28;20229;-82
2023/09/24 02:19:17;;;;;;;5.20;2.08;;;13.10;9.50;;;;;;10437398;28;20207;-81
2023/09/24 02:24:40;;;;;;;2.42;1.90;;;13.00;1.00;;;;;;10414960;28;20283;-79
2023/09/24 02:30:01;;;;;;;4.93;2.15;;;13.00;1.00;;;;;;10422391;28;20262;-83
2023/09/24 02:35:23;;;;;;;5.05;2.95;;;13.00;1.00;;;;;;10410303;28;20257;-80
2023/09/24 02:40:44;;;;;;;2.65;2.40;;;13.00;1.00;;;;;;10478082;28;20233;-79
2023/09/24 02:46:06;;;;;;;2.10;1.70;;;12.90;1.00;;;;;;10471377;28;20215;-78
2023/09/24 02:51:28;;;;;;;3.33;1.90;;;12.90;99.90;;;;;;10460252;28;20215;-78
2023/09/24 02:56:50;;;;;;;3.10;1.70;;;12.90;1.00;;;;;;10446011;28;20260;-78
2023/09/24 03:02:12;;;;;;;2.35;1.80;;;12.90;1.00;;;;;;10471514;28;20203;-80
2023/09/24 03:07:33;;;;;;;2.75;2.08;;;13.00;1.00;;;;;;10476752;28;20283;-80
2023/09/24 03:12:55;;;;;;;3.25;1.88;;;12.90;1.00;;;;;;10392595;28;20196;-81
2023/09/24 03:18:17;;;;;;;2.22;2.00;;;12.80;1.00;;;;;;10468151;28;20220;-81
2023/09/24 03:23:38;;;;;;;3.17;2.28;;;12.80;1.00;;;;;;10402443;28;20227;-75
2023/09/24 03:29:02;;;;;;;3.58;2.20;;;12.90;1.00;;;;;;10406325;28;20195;-81
2023/09/24 03:34:24;;;;;;;3.38;2.33;;;12.80;84.40;;;;;;10426235;28;20222;-80
2023/09/24 03:39:46;;;;;;;2.47;2.28;;;12.60;99.10;;;;;;10443650;28;20200;-80
2023/09/24 03:45:09;;;;;;;2.42;2.03;;;12.60;99.90;;;;;;10424734;28;20228;-78
2023/09/24 03:50:31;;;;;;;4.22;1.83;;;12.70;99.90;;;;;;10425737;28;20503;-80
2023/09/24 03:55:53;;;;;;;5.20;2.78;;;12.60;7.10;;;;;;10442034;28;20406;-80
2023/09/24 04:01:17;;;;;;;7.30;3.55;;;12.50;10.10;;;;;;10467660;28;20195;-81
2023/09/24 04:06:40;;;;;;;2.78;2.40;;;12.50;94.10;;;;;;10469354;28;20591;-79
2023/09/24 04:12:05;;;;;;;2.30;2.10;;;12.40;1.00;;;;;;10433747;28;20246;-78
2023/09/24 04:17:28;;;;;;;2.25;2.05;;;12.40;99.90;;;;;;10455668;28;20322;-79
2023/09/24 04:22:49;;;;;;;2.97;2.35;;;12.30;1.00;;;;;;10426932;28;20483;-81
2023/09/24 04:28:14;;;;;;;2.55;1.92;;;;;;;;;;10445183;28;20203;-81
2023/09/24 04:33:37;;;;;;;2.20;2.00;;;12.40;1.00;;;;;;10400552;28;20518;-78
2023/09/24 04:38:59;;;;;;;4.93;3.00;;;12.30;1.00;;;;;;10399058;28;20186;-80
2023/09/24 04:44:20;;;;;;;6.80;3.03;;;;;;;;;;10438095;28;20278;-81
2023/09/24 04:49:43;;;;;;;4.70;2.58;;;12.10;1.00;;;;;;10458839;28;20211;-82
2023/09/24 04:55:05;;;;;;;5.15;2.75;;;12.00;1.00;;;;;;10464066;28;20229;-80
2023/09/24 05:00:27;;;;;;;5.88;2.70;;;12.00;1.00;;;;;;10475965;28;20205;-79
2023/09/24 05:05:48;;;;;;;4.05;2.80;;;12.10;1.00;;;;;;10481086;28;20234;-79
2023/09/24 05:11:11;;;;;;;4.00;3.10;;;12.20;1.00;;;;;;10457238;28;20393;-79
2023/09/24 05:16:33;;;;;;;3.85;3.08;;;12.20;99.90;;;;;;10464627;28;20229;-81
2023/09/24 05:21:55;;;;;;;5.05;3.10;;;12.30;99.90;;;;;;10438163;28;20415;-81
2023/09/24 05:27:17;;;;;;;3.22;2.80;;;12.40;99.90;;;;;;10455219;28;20374;-80
2023/09/24 05:32:38;;;;;;;3.47;2.45;;;12.40;1.00;;;;;;10479903;28;20216;-82
2023/09/24 05:38:00;;;;;;;4.53;3.40;;;12.60;99.90;;;;;;10480210;28;20272;-81
2023/09/24 05:43:22;;;;;;;4.82;2.70;;;12.70;1.00;;;;;;10474017;28;20235;-79
2023/09/24 05:48:44;;;;;;;3.20;2.60;;;12.80;1.00;;;;;;10479981;28;20190;-80
2023/09/24 05:54:06;;;;;;;3.03;2.53;;;12.90;99.90;;;;;;10475181;28;20270;-81
2023/09/24 05:59:28;;;;;;;2.85;2.65;;;13.00;1.00;;;;;;10379869;28;20218;-81
2023/09/24 06:04:50;;;;;;;3.28;2.47;;;13.10;1.00;;;;;;10396546;28;20228;-82
2023/09/24 06:10:11;;;;;;;3.88;2.65;;;13.20;1.00;;;;;;10392461;28;20494;-81
2023/09/24 06:15:32;;;;;;;3.80;2.60;;;13.30;1.00;;;;;;10422829;28;20238;-82
2023/09/24 06:20:56;;;;;;;4.63;2.35;;;13.50;1.00;;;;;;10437157;28;20194;-81
2023/09/24 06:26:20;;;;;;;3.40;3.10;;;13.70;1.00;;;;;;10431608;28;20231;-82
2023/09/24 06:31:41;;;;;;;3.38;2.83;;;13.80;99.90;;;;;;10406076;28;20460;-81
2023/09/24 06:37:03;;;;;;;3.92;2.92;;;14.00;1.00;;;;;;10436996;28;20289;-80
2023/09/24 06:42:25;;;;;;;6.13;2.88;;;14.30;1.00;;;;;;10419867;28;20206;-82
2023/09/24 06:47:46;;;;;;;3.97;2.85;;;14.70;1.00;;;;;;10394586;28;20411;-81
2023/09/24 06:53:08;;;;;;;5.80;2.65;;;15.30;99.90;;;;;;10415330;28;20214;-82
2023/09/24 06:58:30;;;;;;;3.78;2.83;;;16.50;1.00;;;;;;10436329;28;20514;-80
2023/09/24 07:03:51;;;;;;;8.32;3.33;;;18.00;99.90;;;;;;10453284;28;20389;-80
2023/09/24 07:09:13;;;;;;;6.03;2.53;;;19.00;1.00;;;;;;10459973;28;20204;-79
2023/09/24 07:14:35;;;;;;;4.63;2.00;;;19.80;1.00;;;;;;10418537;28;20439;-81
2023/09/24 07:19:57;;;;;;;3.90;2.55;;;20.40;1.00;;;;;;10454628;28;20204;-82
2023/09/24 07:25:19;;;;;;;4.13;2.17;;;;;;;;;;10443359;28;20490;-82
2023/09/24 07:30:40;;;;;;;3.67;2.10;;;20.50;99.90;;;;;;10470511;28;21243;-82
2023/09/24 07:36:02;;;;;;;2.28;1.73;;;21.10;1.00;;;;;;10459322;28;20230;-83
2023/09/24 07:41:26;;;;;;;4.25;2.30;;;21.60;1.00;;;;;;10476969;28;20434;-80
2023/09/24 07:46:48;;;;;;;5.68;2.30;;;22.10;1.00;;;;;;10444317;28;20208;-82
2023/09/24 07:52:12;;;;;;;2.60;1.95;;;22.20;99.90;;;;;;10477050;28;20192;-83
2023/09/24 07:57:33;;;;;;;4.47;1.88;;;22.30;99.90;;;;;;10482899;28;20253;-81
2023/09/24 08:02:55;;;;;;;4.60;1.80;;;22.20;99.90;;;;;;10478053;28;20396;-83
2023/09/24 08:08:16;;;;;;;3.20;1.52;;;22.10;99.90;;;;;;10483838;28;20256;-81
2023/09/24 08:13:38;;;;;;;3.70;1.88;;;22.40;99.90;;;;;;10399087;28;20209;-82
2023/09/24 08:18:59;;;;;;;5.18;2.17;;;22.60;99.90;;;;;;10418983;28;20224;-83
2023/09/24 08:24:23;;;;;;;3.25;1.85;;;22.10;99.90;;;;;;10459411;28;20403;-81
2023/09/24 08:29:45;;;;;;;1.55;1.30;;;21.90;99.90;;;;;;10482839;28;20295;-82
2023/09/24 08:35:06;;;;;;;2.17;1.42;;;21.10;99.90;;;;;;10482926;28;20215;-84
2023/09/24 08:40:30;;;;;;;2.03;1.38;;;21.30;1.00;;;;;;10466034;28;20306;-81
2023/09/24 08:45:51;;;;;;;2.63;1.52;;;20.70;99.90;;;;;;10482347;28;20192;-83
2023/09/24 08:51:14;;;;;;;4.38;1.40;;;20.30;99.90;;;;;;10458684;28;20207;-83
2023/09/24 08:56:37;;;;;;;2.65;1.25;;;20.40;76.40;;;;;;10482065;28;20287;-81
2023/09/24 09:01:58;;;;;;;2.40;1.48;;;20.40;32.30;;;;;;10481775;28;20194;-83
2023/09/24 09:07:19;;;;;;;4.10;1.40;;;19.90;59.40;;;;;;10460107;28;20244;-83
2023/09/24 09:12:41;;;;;;;3.45;1.77;;;;;;;;;;10447552;28;20218;-81
2023/09/24 09:18:04;;;;;;;2.60;1.67;;;;;;;;;;10439707;28;20258;-83
2023/09/24 09:23:42;;;;;;;1.70;1.08;;;18.20;1.00;;;;;;10461085;28;20487;-81
2023/09/24 09:29:06;;;;;;;2.53;1.50;;;17.40;99.90;;;;;;10479483;28;20222;-80
2023/09/24 09:34:29;;;;;;;2.58;1.73;;;17.70;1.00;;;;;;10456417;28;20246;-83
2023/09/24 09:39:51;;;;;;;4.55;1.60;;;17.70;1.00;;;;;;10479767;28;20196;-81
2023/09/24 09:45:13;;;;;;;3.70;2.00;;;17.80;1.00;;;;;;10479995;28;20237;-82
2023/09/24 09:50:43;;;;;;;4.38;1.50;;;18.20;1.00;;;;;;10456151;28;20208;-82
2023/09/24 09:56:06;;;;;;;3.75;1.23;;;18.50;1.00;;;;;;10478400;28;20252;-80
2023/09/24 10:01:28;;;;;;;2.53;1.40;;;19.10;1.00;;;;;;10461740;28;20199;-82
2023/09/24 10:06:51;;;;;;;2.28;0.82;;;20.90;1.00;;;;;;10460388;28;20247;-82
2023/09/24 10:12:31;;;;;;;2.83;1.05;;;21.80;99.90;;;;;;10424410;28;20247;-81
2023/09/24 10:18:11;;;;;;;3.35;0.80;;;21.10;99.90;;;;;;10418950;28;20542;-82
2023/09/24 10:23:34;;;;;;;1.80;0.80;;;20.80;99.90;;;;;;10395007;28;20268;-81
2023/09/24 10:28:56;;;;;;;3.55;1.30;;;20.90;99.90;;;;;;10405807;28;20192;-82
2023/09/24 10:34:17;;;;;;;2.10;1.08;;;21.60;99.90;;;;;;10405041;28;20207;-82
2023/09/24 10:45:23;;;;;;;1.52;0.90;;;;;;;;;;10437003;28;20196;-83
2023/09/24 10:50:44;;;;;;;2.38;1.15;;;;;;;;;;10435954;28;20517;-83
2023/09/24 10:56:09;;;;;;;2.03;0.85;;;;;;;;;;10436576;28;20216;-83
2023/09/24 11:01:32;;;;;;;1.27;0.75;;;24.90;99.90;;;;;;10420084;28;20192;-81
2023/09/24 11:07:07;;;;;;;2.95;1.10;;;25.70;99.90;;;;;;10395457;28;20271;-83
2023/09/24 11:12:30;;;;;;;3.45;0.82;;;;;;;;;;10418696;28;20203;-81
2023/09/24 11:17:52;;;;;;;2.20;1.05;;;25.80;99.90;;;;;;10417669;28;20322;-81
2023/09/24 11:23:13;;;;;;;1.65;1.10;;;26.30;99.90;;;;;;10435024;28;20204;-83
2023/09/24 11:28:35;;;;;;;1.63;1.00;;;26.20;99.90;;;;;;10435467;28;20204;-83
2023/09/24 11:33:57;;;;;;;1.20;0.82;;;26.50;99.90;;;;;;10444054;28;20203;-83
2023/09/24 11:39:18;;;;;;;3.90;0.90;;;25.40;99.90;;;;;;10413176;28;20223;-80
2023/09/24 11:44:46;;;;;;;3.10;1.00;;;25.70;99.90;;;;;;10444022;28;20234;-83
2023/09/24 11:50:08;;;;;;;2.22;0.93;;;25.30;99.90;;;;;;10443525;28;20199;-83
2023/09/24 11:55:30;;;;;;;1.42;0.63;;;25.30;99.90;;;;;;10441640;28;20220;-82
2023/09/24 12:00:53;;;;;;;2.35;1.10;;;24.60;99.90;;;;;;10443131;28;20192;-82
2023/09/24 12:06:14;;;;;;;2.72;0.90;;;24.20;99.90;;;;;;10441264;28;20535;-82
2023/09/24 12:11:36;;;;;;;2.63;0.82;;;23.70;99.90;;;;;;10427558;28;20495;-81
2023/09/24 12:16:58;;;;;;;1.27;0.75;;;24.00;99.90;;;;;;10424682;28;20234;-82
2023/09/24 12:22:22;;;;;;;1.38;0.85;;;25.30;99.90;;;;;;10441320;28;20211;-82
2023/09/24 12:27:44;;;;;;;3.15;1.02;;;26.30;99.90;;;;;;10427315;28;20441;-83
2023/09/24 12:33:06;;;;;;;2.35;0.95;;;26.60;99.90;;;;;;10441922;28;20268;-83
2023/09/24 12:38:30;;;;;;;2.25;0.88;;;26.90;99.90;;;;;;10440353;28;20282;-83
2023/09/24 12:43:53;;;;;;;0.98;0.75;;;27.10;99.90;;;;;;10423017;28;20196;-81
2023/09/24 12:49:14;;;;;;;2.45;1.10;;;26.40;99.90;;;;;;10422462;28;20220;-83
2023/09/24 12:54:36;;;;;;;2.30;0.80;;;26.10;99.90;;;;;;10399090;28;20204;-79
2023/09/24 12:59:58;;;;;;;4.53;1.05;;;26.00;99.90;;;;;;10407606;28;20391;-81
2023/09/24 13:05:21;;;;;;;3.50;1.38;;;26.10;99.90;;;;;;10435743;28;20232;-79
2023/09/24 13:10:43;;;;;;;2.88;1.25;;;25.30;99.90;;;;;;10439650;28;20203;-80
2023/09/24 13:16:04;;;;;;;4.32;1.10;;;24.10;99.90;;;;;;10438411;28;20458;-81
2023/09/24 13:21:26;;;;;;;4.40;1.33;;;23.70;99.90;;;;;;10425081;28;20207;-81
2023/09/24 13:26:48;;;;;;;3.33;1.15;;;23.90;99.90;;;;;;10438397;28;20208;-81
2023/09/24 13:32:09;;;;;;;3.83;1.10;;;24.50;99.90;;;;;;10424676;28;20237;-82
2023/09/24 13:37:32;;;;;;;1.73;0.98;;;24.70;99.90;;;;;;10423968;28;20303;-83
2023/09/24 13:42:55;;;;;;;2.55;1.25;;;24.80;99.90;;;;;;10437802;28;20192;-82
2023/09/24 13:48:16;;;;;;;3.45;1.20;;;24.60;99.90;;;;;;10437478;28;20235;-80
2023/09/24 13:53:38;;;;;;;2.65;1.30;;;24.50;99.90;;;;;;10437740;28;20196;-82
2023/09/24 13:59:00;;;;;;;1.77;1.15;;;24.40;99.90;;;;;;10419971;28;20224;-80
2023/09/24 14:04:24;;;;;;;3.88;1.05;;;;;;;;;;10396739;28;20233;-82
2023/09/24 14:15:25;;;;;;;3.90;1.23;;;22.20;99.80;;;;;;10395671;28;20213;-81
2023/09/24 14:20:46;;;;;;;2.25;1.20;;;21.80;99.90;;;;;;10414714;28;20204;-82
2023/09/24 14:26:25;;;;;;;3.42;1.42;;;21.30;99.90;;;;;;10436962;28;20234;-82
2023/09/24 14:31:46;;;;;;;2.03;1.23;;;21.30;1.00;;;;;;10436614;28;20333;-83
2023/09/24 14:37:09;;;;;;;2.33;1.30;;;21.00;99.90;;;;;;10436760;28;20212;-81
2023/09/24 14:42:30;;;;;;;4.97;1.60;;;20.80;1.00;;;;;;10437008;28;20905;-78
2023/09/24 14:47:52;;;;;;;2.95;1.05;;;20.50;99.90;;;;;;10435335;28;20264;-82
2023/09/24 14:53:13;;;;;;;3.13;1.20;;;20.20;99.90;;;;;;10436689;28;20493;-81
2023/09/24 14:58:35;;;;;;;2.45;1.25;;;20.40;99.90;;;;;;10436397;28;20212;-80
2023/09/24 15:03:56;;;;;;;4.45;1.35;;;20.50;99.90;;;;;;10420771;28;20247;-78
2023/09/24 15:09:17;;;;;;;2.60;1.38;;;20.30;99.90;;;;;;10408676;28;20259;-79
2023/09/24 15:14:39;;;;;;;1.80;1.08;;;20.10;99.90;;;;;;10449166;28;20193;-82
2023/09/24 15:19:59;;;;;;;2.72;1.23;;;19.90;99.90;;;;;;10448814;28;20371;-81
2023/09/24 15:25:21;;;;;;;6.95;1.30;;;19.60;99.90;;;;;;10448547;28;20381;-78
2023/09/24 15:30:44;;;;;;;2.40;1.17;;;20.10;1.00;;;;;;10448427;28;20188;-79
2023/09/24 15:36:07;;;;;;;2.53;1.25;;;19.50;99.90;;;;;;10406510;28;20258;-80
2023/09/24 15:41:32;;;;;;;6.05;2.28;;;19.30;99.90;;;;;;10408629;28;20359;-82
2023/09/24 15:46:53;;;;;;;3.38;1.90;;;;;;;;;;10419342;28;20523;-81
2023/09/24 15:52:15;;;;;;;3.42;1.40;;;18.70;99.40;;;;;;10421028;28;20209;-81
2023/09/24 15:57:40;;;;;;;2.78;0.90;;;18.50;99.90;;;;;;10407648;28;20240;-81
2023/09/24 16:03:01;;;;;;;1.38;1.10;;;18.30;99.90;;;;;;10435297;28;20203;-80
2023/09/24 16:08:23;;;;;;;2.40;1.17;;;18.10;99.90;;;;;;10447633;28;20246;-81
2023/09/24 16:13:44;;;;;;;6.07;1.45;;;17.90;99.90;;;;;;10448365;28;20200;-81
2023/09/24 16:19:05;;;;;;;3.67;1.50;;;17.90;99.90;;;;;;10426666;28;20279;-81
2023/09/24 16:24:29;;;;;;;2.83;1.65;;;17.70;99.90;;;;;;10424720;28;20197;-81
2023/09/24 16:29:50;;;;;;;1.90;1.40;;;17.60;99.90;;;;;;10441316;28;20199;-82
2023/09/24 16:35:13;;;;;;;3.63;1.70;;;17.60;99.90;;;;;;10441151;28;20238;-82
2023/09/24 16:40:34;;;;;;;2.95;1.73;;;17.40;99.90;;;;;;10440769;28;20513;-80
2023/09/24 16:45:55;;;;;;;3.38;2.00;;;17.20;99.90;;;;;;10440136;28;20200;-79
2023/09/24 16:51:17;;;;;;;2.80;1.73;;;;;;;;;;10441343;28;20189;-82
2023/09/24 16:56:38;;;;;;;2.90;1.70;;;16.90;1.00;;;;;;10423105;28;20367;-81
2023/09/24 17:02:01;;;;;;;2.53;1.42;;;17.00;99.90;;;;;;10439532;28;20232;-81
2023/09/24 17:07:22;;;;;;;3.47;2.35;;;16.90;99.90;;;;;;10440447;28;20307;-81
2023/09/24 17:12:44;;;;;;;4.05;2.40;;;16.70;1.00;;;;;;10439458;28;20208;-80
2023/09/24 17:18:06;;;;;;;5.57;3.17;;;;;;;;;;10439441;28;20303;-82
2023/09/24 17:23:27;;;;;;;11.48;6.28;;;16.20;99.90;;;;;;10422415;28;20202;-81
2023/09/24 17:28:51;;;;;;;17.23;8.25;;;16.10;99.90;;;;;;10437693;28;20271;-82
2023/09/24 17:34:15;;;;;;;19.42;10.23;;;16.00;99.90;;;;;;10439197;28;20203;-78
2023/09/24 17:39:37;;;;;;;32.10;13.13;;;;;;;;;;10451919;28;20245;-79
2023/09/24 17:44:57;;;;;;;33.63;15.75;;;15.50;99.90;;;;;;10437413;28;20279;-76
2023/09/24 17:50:19;;;;;;;33.88;18.08;;;15.60;1.00;;;;;;10424106;28;20481;-80
2023/09/24 17:55:40;;;;;;;35.90;17.30;;;15.40;1.00;;;;;;10420580;28;20207;-79
2023/09/24 18:01:10;;;;;;;36.42;18.17;;;;;;;;;;10436311;28;20214;-80
2023/09/24 18:06:32;;;;;;;37.42;17.05;;;15.50;1.00;;;;;;10438170;28;20227;-82
2023/09/24 18:11:53;;;;;;;27.58;15.20;;;;;;;;;;10450608;28;20278;-79
2023/09/24 18:17:15;;;;;;;31.85;15.80;;;;;;;;;;10423281;28;20231;-79
2023/09/24 18:22:40;;;;;;;35.63;19.42;;;;;;;;;;10437316;28;20471;-80
2023/09/24 18:28:01;;;;;;;31.10;16.92;;;;;;;;;;10422833;28;20194;-79
2023/09/24 18:33:23;;;;;;;32.92;16.63;;;;;;;;;;10417808;28;20226;-83
2023/09/24 18:38:44;;;;;;;28.83;15.23;;;;;;;;;;10418380;28;20298;-82
2023/09/24 18:44:08;;;;;;;33.08;16.85;;;;;;;;;;10437190;28;20189;-80
2023/09/24 18:49:29;;;;;;;25.60;15.20;;;;;;;;;;10436921;28;20209;-82
2023/09/24 18:54:51;;;;;;;24.80;14.90;;;14.50;1.00;;;;;;10407970;28;20296;-79
2023/09/24 19:00:14;;;;;;;23.05;14.63;;;14.40;1.00;;;;;;10395757;28;20220;-79
2023/09/24 19:05:36;;;;;;;27.45;14.68;;;14.00;1.00;;;;;;10394167;28;20231;-83
2023/09/24 19:10:57;;;;;;;27.90;16.20;;;;;;;;;;10413768;28;20203;-81
2023/09/24 19:16:19;;;;;;;26.02;17.17;;;;;;;;;;10395414;28;20285;-82
2023/09/24 19:21:40;;;;;;;26.23;16.40;;;13.90;1.00;;;;;;10420871;28;20248;-81
2023/09/24 19:27:03;;;;;;;25.23;15.35;;;13.90;99.90;;;;;;10435297;28;20206;-78
2023/09/24 19:32:25;;;;;;;25.25;14.77;;;13.70;99.90;;;;;;10435873;28;20485;-80
2023/09/24 19:37:46;;;;;;;26.88;14.65;;;13.70;99.90;;;;;;10420337;28;20249;-83
2023/09/24 19:43:08;;;;;;;30.60;16.50;;;13.50;1.00;;;;;;10395086;28;20215;-82
2023/09/24 19:48:30;;;;;;;24.85;16.08;;;13.40;1.00;;;;;;10417608;28;20288;-81
2023/09/24 19:53:51;;;;;;;26.00;16.17;;;13.40;1.00;;;;;;10440835;28;20291;-81
2023/09/24 19:59:12;;;;;;;25.23;15.07;;;13.30;1.00;;;;;;10442122;28;20218;-76
2023/09/24 20:04:34;;;;;;;28.35;15.82;;;13.30;99.90;;;;;;10424589;28;20262;-81
2023/09/24 20:09:56;;;;;;;20.90;14.38;;;13.40;1.00;;;;;;10442802;28;20191;-80
2023/09/24 20:15:17;;;;;;;20.38;14.60;;;;;;;;;;10411946;28;20461;-80
2023/09/24 20:20:39;;;;;;;23.58;14.63;;;13.20;99.90;;;;;;10441264;28;20365;-79
2023/09/24 20:26:00;;;;;;;25.55;15.48;;;13.10;99.90;;;;;;10442032;28;20349;-83
2023/09/24 20:31:21;;;;;;;28.52;17.98;;;13.00;99.90;;;;;;10441346;28;20205;-82
2023/09/24 20:36:43;;;;;;;37.38;22.42;;;12.80;99.90;;;;;;10441586;28;20225;-80
2023/09/24 20:42:04;;;;;;;34.78;21.70;;;12.80;99.90;;;;;;10441640;28;20235;-83
2023/09/24 20:47:28;;;;;;;35.92;22.20;;;12.80;99.90;;;;;;10418974;28;20256;-81
2023/09/24 20:52:49;;;;;;;27.85;18.30;;;;;;;;;;10441302;28;20198;-82
2023/09/24 20:58:10;;;;;;;30.50;19.95;;;12.80;1.00;;;;;;10416617;28;20222;-79
2023/09/24 21:03:32;;;;;;;20.90;13.10;;;12.70;1.00;;;;;;10399303;28;20197;-81
2023/09/24 21:14:12;;;;;;;18.23;11.18;;;12.50;1.00;;;;;;10430554;28;20281;-80
2023/09/24 21:19:34;;;;;;;18.15;11.02;;;12.20;1.00;;;;;;10408399;28;20219;-78
2023/09/24 21:24:55;;;;;;;22.45;11.13;;;12.40;1.00;;;;;;10439314;28;20501;-81
2023/09/24 21:30:16;;;;;;;19.55;11.30;;;12.20;1.00;;;;;;10423892;28;20503;-78
2023/09/24 21:35:37;;;;;;;18.48;11.38;;;12.20;1.00;;;;;;10438933;28;20203;-81
2023/09/24 21:40:58;;;;;;;18.42;10.43;;;12.20;1.00;;;;;;10432875;28;20227;-79
2023/09/24 21:46:20;;;;;;;14.90;9.63;;;12.20;1.00;;;;;;10438835;28;20191;-81
2023/09/24 21:51:42;;;;;;;18.45;10.90;;;12.20;99.90;;;;;;10438122;28;20401;-82
2023/09/24 21:57:03;;;;;;;20.98;12.30;;;12.20;1.00;;;;;;10420910;28;20227;-80
2023/09/24 22:02:24;;;;;;;21.98;13.02;;;12.10;99.90;;;;;;10411340;28;20213;-80
2023/09/24 22:07:47;;;;;;;24.70;13.02;;;12.10;99.90;;;;;;10400773;28;20310;-77
2023/09/24 22:13:09;;;;;;;17.58;10.43;;;12.10;1.00;;;;;;10425830;28;20272;-79
2023/09/24 22:18:30;;;;;;;13.75;9.18;;;12.00;99.90;;;;;;10436717;28;20306;-77
2023/09/24 22:23:52;;;;;;;11.98;8.05;;;12.00;1.00;;;;;;10419943;28;20221;-81
2023/09/24 22:29:14;;;;;;;16.55;8.57;;;;;;;;;;10436423;28;20237;-81
2023/09/24 22:34:35;;;;;;;10.10;6.82;;;11.70;99.90;;;;;;10437633;28;20191;-78
2023/09/24 22:39:56;;;;;;;11.98;8.05;;;11.60;99.90;;;;;;10436644;28;20252;-79
2023/09/24 22:45:17;;;;;;;16.23;7.60;;;11.70;99.90;;;;;;10436779;28;20192;-80
2023/09/24 22:50:40;;;;;;;8.68;6.05;;;11.70;99.90;;;;;;10421398;28;20211;-79
2023/09/24 22:56:01;;;;;;;9.90;5.40;;;11.60;99.90;;;;;;10436762;28;20199;-79
2023/09/24 23:01:22;;;;;;;8.27;5.20;;;11.50;99.90;;;;;;10400156;28;20196;-78
2023/09/24 23:06:44;;;;;;;9.45;5.38;;;11.50;99.90;;;;;;10395286;28;20252;-79
2023/09/24 23:12:06;;;;;;;7.10;4.68;;;11.40;99.90;;;;;;10420657;28;20211;-78
2023/09/24 23:17:27;;;;;;;10.02;5.30;;;11.30;1.00;;;;;;10436110;28;20269;-80
2023/09/24 23:22:52;;;;;;;10.15;5.85;;;11.30;99.90;;;;;;10433935;28;20195;-80
2023/09/24 23:28:13;;;;;;;9.57;5.55;;;11.20;99.90;;;;;;10442671;28;20238;-82
2023/09/24 23:33:35;;;;;;;8.35;5.70;;;11.20;99.90;;;;;;10413092;28;20241;-80
2023/09/24 23:38:56;;;;;;;7.75;5.50;;;11.10;99.90;;;;;;10424985;28;20537;-78
2023/09/24 23:44:18;;;;;;;7.90;4.67;;;10.90;99.90;;;;;;10443735;28;20215;-80
2023/09/24 23:49:39;;;;;;;8.03;4.30;;;10.80;1.00;;;;;;10442786;28;20274;-79
2023/09/24 23:55:02;;;;;;;6.83;4.30;;;10.80;1.00;;;;;;10412170;28;20553;-80
